sensor_id;sensor_type;location;lat;lon;timestamp;pressure;altitude;pressure_sealevel;temperature;humidity
11347;BME280;5728;42.722;23.258;2022-08-19T00:00:35;94509.13;;;22.04;66.01
11347;BME280;5728;42.722;23.258;2022-08-19T00:03:02;94502.19;;;22.15;65.76
11347;BME280;5728;42.722;23.258;2022-08-19T00:05:29;94504.81;;;22.30;65.12
11347;BME280;5728;42.722;23.258;2022-08-19T00:07:56;94510.78;;;22.19;65.76
11347;BME280;5728;42.722;23.258;2022-08-19T00:10:24;94513.94;;;22.11;65.32
11347;BME280;5728;42.722;23.258;2022-08-19T00:12:52;94513.72;;;22.14;65.38
11347;BME280;5728;42.722;23.258;2022-08-19T00:15:20;94516.31;;;22.29;64.74
11347;BME280;5728;42.722;23.258;2022-08-19T00:17:48;94518.66;;;22.60;64.63
11347;BME280;5728;42.722;23.258;2022-08-19T00:20:20;94519.13;;;22.40;64.99
11347;BME280;5728;42.722;23.258;2022-08-19T00:22:47;94521.78;;;22.40;64.84
11347;BME280;5728;42.722;23.258;2022-08-19T00:25:14;94523.31;;;22.30;65.29
11347;BME280;5728;42.722;23.258;2022-08-19T00:27:41;94526.94;;;22.41;65.12
11347;BME280;5728;42.722;23.258;2022-08-19T00:30:10;94512.00;;;22.28;65.64
11347;BME280;5728;42.722;23.258;2022-08-19T00:32:38;94520.06;;;22.39;65.73
11347;BME280;5728;42.722;23.258;2022-08-19T00:35:06;94519.81;;;22.56;64.72
11347;BME280;5728;42.722;23.258;2022-08-19T00:37:34;94515.53;;;22.41;65.58
11347;BME280;5728;42.722;23.258;2022-08-19T00:40:06;94507.75;;;22.52;64.81
11347;BME280;5728;42.722;23.258;2022-08-19T00:42:33;94506.56;;;22.16;65.86
11347;BME280;5728;42.722;23.258;2022-08-19T00:45:00;94506.91;;;22.24;66.19
11347;BME280;5728;42.722;23.258;2022-08-19T00:47:29;94499.38;;;22.18;66.55
11347;BME280;5728;42.722;23.258;2022-08-19T00:49:57;94505.56;;;22.05;66.17
11347;BME280;5728;42.722;23.258;2022-08-19T00:52:26;94504.03;;;22.15;67.09
11347;BME280;5728;42.722;23.258;2022-08-19T00:54:55;94504.53;;;21.79;68.39
11347;BME280;5728;42.722;23.258;2022-08-19T00:57:27;94501.22;;;21.76;68.29
11347;BME280;5728;42.722;23.258;2022-08-19T00:59:55;94513.84;;;21.99;68.12
11347;BME280;5728;42.722;23.258;2022-08-19T01:02:23;94506.13;;;21.96;68.21
11347;BME280;5728;42.722;23.258;2022-08-19T01:04:52;94520.06;;;21.98;67.61
11347;BME280;5728;42.722;23.258;2022-08-19T01:07:19;94481.13;;;22.01;67.67
11347;BME280;5728;42.722;23.258;2022-08-19T01:09:46;94509.03;;;22.05;67.86
11347;BME280;5728;42.722;23.258;2022-08-19T01:12:13;94519.31;;;21.96;67.80
11347;BME280;5728;42.722;23.258;2022-08-19T01:14:40;94512.44;;;21.93;67.77
11347;BME280;5728;42.722;23.258;2022-08-19T01:17:07;94507.97;;;22.08;67.22
11347;BME280;5728;42.722;23.258;2022-08-19T01:19:37;94513.59;;;21.89;67.83
11347;BME280;5728;42.722;23.258;2022-08-19T01:22:12;94510.28;;;21.86;68.44
11347;BME280;5728;42.722;23.258;2022-08-19T01:24:42;94505.56;;;21.77;68.48
11347;BME280;5728;42.722;23.258;2022-08-19T01:27:09;94501.34;;;21.74;68.82
11347;BME280;5728;42.722;23.258;2022-08-19T01:29:38;94500.97;;;21.66;68.84
11347;BME280;5728;42.722;23.258;2022-08-19T01:32:06;94508.69;;;21.55;68.32
11347;BME280;5728;42.722;23.258;2022-08-19T01:34:33;94506.06;;;21.27;69.35
11347;BME280;5728;42.722;23.258;2022-08-19T01:37:05;94505.28;;;21.25;69.35
11347;BME280;5728;42.722;23.258;2022-08-19T01:39:33;94506.06;;;21.27;68.77
11347;BME280;5728;42.722;23.258;2022-08-19T01:42:02;94506.44;;;21.21;69.39
11347;BME280;5728;42.722;23.258;2022-08-19T01:44:29;94506.59;;;21.18;69.08
11347;BME280;5728;42.722;23.258;2022-08-19T01:46:56;94505.50;;;21.22;69.00
11347;BME280;5728;42.722;23.258;2022-08-19T01:49:24;94515.66;;;21.28;68.91
11347;BME280;5728;42.722;23.258;2022-08-19T01:51:52;94515.13;;;21.37;68.43
11347;BME280;5728;42.722;23.258;2022-08-19T01:54:22;94513.59;;;21.33;68.35
11347;BME280;5728;42.722;23.258;2022-08-19T01:56:49;94506.22;;;21.10;69.89
11347;BME280;5728;42.722;23.258;2022-08-19T01:59:20;94503.31;;;21.14;69.50
11347;BME280;5728;42.722;23.258;2022-08-19T02:01:49;94519.41;;;21.10;70.26
11347;BME280;5728;42.722;23.258;2022-08-19T02:04:16;94520.19;;;21.12;71.19
11347;BME280;5728;42.722;23.258;2022-08-19T02:06:43;94517.53;;;21.12;71.89
11347;BME280;5728;42.722;23.258;2022-08-19T02:09:10;94520.84;;;20.99;71.74
11347;BME280;5728;42.722;23.258;2022-08-19T02:11:37;94528.16;;;21.10;71.46
11347;BME280;5728;42.722;23.258;2022-08-19T02:14:06;94515.59;;;20.99;71.87
11347;BME280;5728;42.722;23.258;2022-08-19T02:16:36;94515.09;;;21.09;70.40
11347;BME280;5728;42.722;23.258;2022-08-19T02:19:03;94507.66;;;20.99;71.09
11347;BME280;5728;42.722;23.258;2022-08-19T02:21:31;94514.69;;;21.15;70.51
11347;BME280;5728;42.722;23.258;2022-08-19T02:23:58;94515.94;;;21.09;70.66
11347;BME280;5728;42.722;23.258;2022-08-19T02:26:26;94514.63;;;20.86;71.26
11347;BME280;5728;42.722;23.258;2022-08-19T02:28:54;94515.44;;;20.73;70.65
11347;BME280;5728;42.722;23.258;2022-08-19T02:31:22;94520.09;;;20.97;69.89
11347;BME280;5728;42.722;23.258;2022-08-19T02:33:51;94523.06;;;20.77;70.74
11347;BME280;5728;42.722;23.258;2022-08-19T02:36:18;94508.38;;;20.73;70.53
11347;BME280;5728;42.722;23.258;2022-08-19T02:38:45;94519.38;;;20.66;70.63
11347;BME280;5728;42.722;23.258;2022-08-19T02:41:14;94517.09;;;20.60;70.83
11347;BME280;5728;42.722;23.258;2022-08-19T02:43:42;94518.53;;;20.65;71.10
11347;BME280;5728;42.722;23.258;2022-08-19T02:46:14;94510.44;;;20.68;70.71
11347;BME280;5728;42.722;23.258;2022-08-19T02:48:46;94514.00;;;20.67;71.24
11347;BME280;5728;42.722;23.258;2022-08-19T02:51:18;94511.69;;;20.47;71.40
11347;BME280;5728;42.722;23.258;2022-08-19T02:53:45;94521.53;;;20.59;72.19
11347;BME280;5728;42.722;23.258;2022-08-19T02:56:12;94519.28;;;20.67;71.48
11347;BME280;5728;42.722;23.258;2022-08-19T02:58:40;94520.97;;;20.68;71.37
11347;BME280;5728;42.722;23.258;2022-08-19T03:01:08;94523.50;;;20.70;71.25
11347;BME280;5728;42.722;23.258;2022-08-19T03:03:35;94516.84;;;20.64;70.67
11347;BME280;5728;42.722;23.258;2022-08-19T03:06:08;94518.91;;;20.59;71.14
11347;BME280;5728;42.722;23.258;2022-08-19T03:08:38;94518.41;;;20.67;71.60
11347;BME280;5728;42.722;23.258;2022-08-19T03:11:05;94512.91;;;20.71;71.27
11347;BME280;5728;42.722;23.258;2022-08-19T03:13:32;94511.31;;;20.69;71.59
11347;BME280;5728;42.722;23.258;2022-08-19T03:15:59;94510.63;;;20.65;71.54
11347;BME280;5728;42.722;23.258;2022-08-19T03:18:25;94513.22;;;20.51;71.22
11347;BME280;5728;42.722;23.258;2022-08-19T03:20:52;94515.53;;;20.71;71.22
11347;BME280;5728;42.722;23.258;2022-08-19T03:23:20;94512.91;;;20.71;71.84
11347;BME280;5728;42.722;23.258;2022-08-19T03:25:50;94526.53;;;20.64;72.19
11347;BME280;5728;42.722;23.258;2022-08-19T03:28:17;94532.19;;;20.11;74.38
11347;BME280;5728;42.722;23.258;2022-08-19T03:30:56;94531.25;;;19.96;75.69
11347;BME280;5728;42.722;23.258;2022-08-19T03:33:24;94538.09;;;19.67;76.98
11347;BME280;5728;42.722;23.258;2022-08-19T03:36:03;94531.97;;;19.34;78.66
11347;BME280;5728;42.722;23.258;2022-08-19T03:38:30;94528.53;;;19.17;79.96
11347;BME280;5728;42.722;23.258;2022-08-19T03:41:02;94529.25;;;18.86;81.69
11347;BME280;5728;42.722;23.258;2022-08-19T03:43:32;94535.38;;;18.86;81.57
11347;BME280;5728;42.722;23.258;2022-08-19T03:46:03;94542.22;;;19.06;80.65
11347;BME280;5728;42.722;23.258;2022-08-19T03:48:32;94545.28;;;19.31;79.02
11347;BME280;5728;42.722;23.258;2022-08-19T03:50:59;94542.56;;;19.50;78.36
11347;BME280;5728;42.722;23.258;2022-08-19T03:53:28;94549.06;;;19.76;77.17
11347;BME280;5728;42.722;23.258;2022-08-19T03:55:56;94551.88;;;19.88;77.65
11347;BME280;5728;42.722;23.258;2022-08-19T03:58:25;94543.41;;;20.30;76.47
11347;BME280;5728;42.722;23.258;2022-08-19T04:00:53;94541.78;;;20.43;74.93
11347;BME280;5728;42.722;23.258;2022-08-19T04:03:20;94543.81;;;20.54;74.13
11347;BME280;5728;42.722;23.258;2022-08-19T04:05:47;94542.22;;;20.65;73.85
11347;BME280;5728;42.722;23.258;2022-08-19T04:08:14;94556.00;;;20.70;74.22
11347;BME280;5728;42.722;23.258;2022-08-19T04:10:46;94555.81;;;20.73;73.65
11347;BME280;5728;42.722;23.258;2022-08-19T04:13:13;94559.78;;;20.80;72.92
11347;BME280;5728;42.722;23.258;2022-08-19T04:15:42;94559.78;;;20.80;72.10
11347;BME280;5728;42.722;23.258;2022-08-19T04:18:10;94561.25;;;20.70;72.38
11347;BME280;5728;42.722;23.258;2022-08-19T04:20:42;94567.00;;;20.77;71.53
11347;BME280;5728;42.722;23.258;2022-08-19T04:23:09;94560.38;;;20.85;72.00
11347;BME280;5728;42.722;23.258;2022-08-19T04:25:38;94559.97;;;21.07;70.83
11347;BME280;5728;42.722;23.258;2022-08-19T04:28:05;94565.03;;;21.26;70.19
11347;BME280;5728;42.722;23.258;2022-08-19T04:30:37;94566.53;;;21.30;70.41
11347;BME280;5728;42.722;23.258;2022-08-19T04:33:06;94568.81;;;21.50;70.67
11347;BME280;5728;42.722;23.258;2022-08-19T04:35:38;94568.72;;;21.66;70.42
11347;BME280;5728;42.722;23.258;2022-08-19T04:38:06;94576.00;;;21.76;69.36
11347;BME280;5728;42.722;23.258;2022-08-19T04:40:33;94573.72;;;21.98;67.46
11347;BME280;5728;42.722;23.258;2022-08-19T04:43:17;94575.91;;;22.06;66.23
11347;BME280;5728;42.722;23.258;2022-08-19T04:45:44;94571.50;;;21.92;66.87
11347;BME280;5728;42.722;23.258;2022-08-19T04:48:13;94572.03;;;22.11;66.27
11347;BME280;5728;42.722;23.258;2022-08-19T04:50:42;94566.56;;;22.14;65.73
11347;BME280;5728;42.722;23.258;2022-08-19T04:53:10;94575.59;;;22.24;65.31
11347;BME280;5728;42.722;23.258;2022-08-19T04:55:41;94562.75;;;22.18;65.71
11347;BME280;5728;42.722;23.258;2022-08-19T04:58:08;94573.47;;;22.44;65.13
11347;BME280;5728;42.722;23.258;2022-08-19T05:00:37;94572.88;;;22.53;65.15
11347;BME280;5728;42.722;23.258;2022-08-19T05:03:04;94574.66;;;22.66;64.49
11347;BME280;5728;42.722;23.258;2022-08-19T05:05:32;94571.72;;;22.83;64.09
11347;BME280;5728;42.722;23.258;2022-08-19T05:07:59;94575.66;;;22.78;63.87
11347;BME280;5728;42.722;23.258;2022-08-19T05:10:26;94571.78;;;22.96;63.83
11347;BME280;5728;42.722;23.258;2022-08-19T05:12:52;94573.09;;;23.16;63.49
11347;BME280;5728;42.722;23.258;2022-08-19T05:15:19;94592.19;;;23.33;62.30
11347;BME280;5728;42.722;23.258;2022-08-19T05:17:46;94579.41;;;23.40;62.01
11347;BME280;5728;42.722;23.258;2022-08-19T05:20:27;94604.72;;;23.57;61.62
11347;BME280;5728;42.722;23.258;2022-08-19T05:23:12;94580.59;;;23.48;61.91
11347;BME280;5728;42.722;23.258;2022-08-19T05:25:41;94583.34;;;23.60;61.74
11347;BME280;5728;42.722;23.258;2022-08-19T05:28:07;94587.69;;;23.61;61.22
11347;BME280;5728;42.722;23.258;2022-08-19T05:30:34;94592.88;;;23.75;61.77
11347;BME280;5728;42.722;23.258;2022-08-19T05:33:01;94586.63;;;24.01;59.97
11347;BME280;5728;42.722;23.258;2022-08-19T05:35:28;94575.06;;;24.15;60.11
11347;BME280;5728;42.722;23.258;2022-08-19T05:37:55;94587.31;;;24.28;60.10
11347;BME280;5728;42.722;23.258;2022-08-19T05:40:24;94587.13;;;24.31;59.11
11347;BME280;5728;42.722;23.258;2022-08-19T05:42:50;94584.09;;;24.48;59.34
11347;BME280;5728;42.722;23.258;2022-08-19T05:45:18;94590.81;;;24.65;58.36
11347;BME280;5728;42.722;23.258;2022-08-19T05:47:46;94585.13;;;24.58;58.43
11347;BME280;5728;42.722;23.258;2022-08-19T05:50:13;94582.75;;;24.79;58.20
11347;BME280;5728;42.722;23.258;2022-08-19T05:52:40;94574.59;;;24.93;57.55
11347;BME280;5728;42.722;23.258;2022-08-19T05:55:07;94573.31;;;24.99;56.59
11347;BME280;5728;42.722;23.258;2022-08-19T05:57:36;94600.63;;;25.12;56.48
11347;BME280;5728;42.722;23.258;2022-08-19T06:00:04;94581.41;;;25.32;55.52
11347;BME280;5728;42.722;23.258;2022-08-19T06:02:34;94587.03;;;25.51;54.68
11347;BME280;5728;42.722;23.258;2022-08-19T06:05:00;94584.91;;;25.78;53.72
11347;BME280;5728;42.722;23.258;2022-08-19T06:07:28;94584.22;;;26.10;52.71
11347;BME280;5728;42.722;23.258;2022-08-19T06:09:55;94590.00;;;26.04;52.86
11347;BME280;5728;42.722;23.258;2022-08-19T06:12:21;94591.69;;;25.82;52.84
11347;BME280;5728;42.722;23.258;2022-08-19T06:14:53;94585.63;;;25.91;53.09
11347;BME280;5728;42.722;23.258;2022-08-19T06:17:20;94593.19;;;26.20;52.49
11347;BME280;5728;42.722;23.258;2022-08-19T06:19:50;94598.75;;;26.28;51.85
11347;BME280;5728;42.722;23.258;2022-08-19T06:22:17;94592.75;;;26.69;51.38
11347;BME280;5728;42.722;23.258;2022-08-19T06:24:44;94591.94;;;26.68;50.51
11347;BME280;5728;42.722;23.258;2022-08-19T06:27:10;94592.16;;;26.65;50.26
11347;BME280;5728;42.722;23.258;2022-08-19T06:29:37;94582.94;;;26.91;49.57
11347;BME280;5728;42.722;23.258;2022-08-19T06:32:06;94587.50;;;27.32;48.70
11347;BME280;5728;42.722;23.258;2022-08-19T06:34:34;94595.38;;;27.34;48.87
11347;BME280;5728;42.722;23.258;2022-08-19T06:37:01;94594.03;;;27.60;48.32
11347;BME280;5728;42.722;23.258;2022-08-19T06:39:32;94594.91;;;27.81;48.09
11347;BME280;5728;42.722;23.258;2022-08-19T06:42:02;94601.66;;;27.44;48.27
11347;BME280;5728;42.722;23.258;2022-08-19T06:44:33;94597.38;;;27.73;48.37
11347;BME280;5728;42.722;23.258;2022-08-19T06:47:03;94597.81;;;27.99;47.21
11347;BME280;5728;42.722;23.258;2022-08-19T06:49:32;94594.75;;;28.24;47.66
11347;BME280;5728;42.722;23.258;2022-08-19T06:52:00;94597.31;;;28.35;46.59
11347;BME280;5728;42.722;23.258;2022-08-19T06:54:28;94587.75;;;28.02;46.78
11347;BME280;5728;42.722;23.258;2022-08-19T06:56:59;94600.28;;;28.41;46.97
11347;BME280;5728;42.722;23.258;2022-08-19T06:59:28;94600.91;;;28.55;45.97
11347;BME280;5728;42.722;23.258;2022-08-19T07:01:58;94603.22;;;28.69;46.01
11347;BME280;5728;42.722;23.258;2022-08-19T07:04:29;94602.38;;;28.68;45.74
11347;BME280;5728;42.722;23.258;2022-08-19T07:07:00;94595.56;;;29.14;45.23
11347;BME280;5728;42.722;23.258;2022-08-19T07:09:27;94601.09;;;29.41;44.77
11347;BME280;5728;42.722;23.258;2022-08-19T07:11:55;94593.66;;;29.54;44.35
11347;BME280;5728;42.722;23.258;2022-08-19T07:14:23;94597.16;;;29.73;43.40
11347;BME280;5728;42.722;23.258;2022-08-19T07:16:52;94601.53;;;29.84;43.79
11347;BME280;5728;42.722;23.258;2022-08-19T07:19:21;94607.16;;;29.81;43.84
11347;BME280;5728;42.722;23.258;2022-08-19T07:21:49;94601.41;;;29.47;43.36
11347;BME280;5728;42.722;23.258;2022-08-19T07:24:20;94606.16;;;29.73;43.47
11347;BME280;5728;42.722;23.258;2022-08-19T07:26:50;94597.72;;;29.87;43.97
11347;BME280;5728;42.722;23.258;2022-08-19T07:29:18;94598.00;;;29.84;43.06
11347;BME280;5728;42.722;23.258;2022-08-19T07:31:48;94597.47;;;29.70;42.94
11347;BME280;5728;42.722;23.258;2022-08-19T07:34:15;94605.84;;;30.04;42.98
11347;BME280;5728;42.722;23.258;2022-08-19T07:36:43;94595.28;;;30.12;42.81
11347;BME280;5728;42.722;23.258;2022-08-19T07:39:13;94595.06;;;29.87;43.12
11347;BME280;5728;42.722;23.258;2022-08-19T07:41:41;94593.66;;;30.29;42.30
11347;BME280;5728;42.722;23.258;2022-08-19T07:44:09;94592.41;;;30.33;41.96
11347;BME280;5728;42.722;23.258;2022-08-19T07:46:39;94596.91;;;30.69;40.84
11347;BME280;5728;42.722;23.258;2022-08-19T07:49:07;94586.69;;;30.82;41.02
11347;BME280;5728;42.722;23.258;2022-08-19T07:51:45;94588.53;;;30.91;40.12
11347;BME280;5728;42.722;23.258;2022-08-19T07:54:12;94594.50;;;30.39;40.83
11347;BME280;5728;42.722;23.258;2022-08-19T07:56:45;94581.25;;;30.47;40.92
11347;BME280;5728;42.722;23.258;2022-08-19T07:59:12;94584.78;;;31.20;39.84
11347;BME280;5728;42.722;23.258;2022-08-19T08:01:39;94600.31;;;31.61;39.39
11347;BME280;5728;42.722;23.258;2022-08-19T08:04:07;94601.25;;;31.95;38.56
11347;BME280;5728;42.722;23.258;2022-08-19T08:06:51;94595.72;;;32.14;37.88
11347;BME280;5728;42.722;23.258;2022-08-19T08:09:37;94595.06;;;32.46;36.65
11347;BME280;5728;42.722;23.258;2022-08-19T08:12:08;94589.03;;;32.78;36.91
11347;BME280;5728;42.722;23.258;2022-08-19T08:14:38;94582.75;;;32.95;36.13
11347;BME280;5728;42.722;23.258;2022-08-19T08:17:08;94581.47;;;33.07;36.08
11347;BME280;5728;42.722;23.258;2022-08-19T08:19:35;94577.94;;;33.07;35.53
11347;BME280;5728;42.722;23.258;2022-08-19T08:22:02;94577.25;;;32.71;36.03
11347;BME280;5728;42.722;23.258;2022-08-19T08:24:31;94581.50;;;33.23;36.43
11347;BME280;5728;42.722;23.258;2022-08-19T08:26:59;94573.25;;;33.17;35.41
11347;BME280;5728;42.722;23.258;2022-08-19T08:29:29;94584.09;;;32.99;35.55
11347;BME280;5728;42.722;23.258;2022-08-19T08:31:56;94570.28;;;32.86;35.14
11347;BME280;5728;42.722;23.258;2022-08-19T08:34:24;94575.06;;;32.41;36.34
11347;BME280;5728;42.722;23.258;2022-08-19T08:36:50;94577.63;;;32.76;35.03
11347;BME280;5728;42.722;23.258;2022-08-19T08:39:19;94564.41;;;32.83;35.08
11347;BME280;5728;42.722;23.258;2022-08-19T08:41:54;94575.16;;;33.49;34.18
11347;BME280;5728;42.722;23.258;2022-08-19T08:44:31;94575.19;;;33.89;33.35
11347;BME280;5728;42.722;23.258;2022-08-19T08:47:13;94575.56;;;34.10;33.68
11347;BME280;5728;42.722;23.258;2022-08-19T08:49:45;94571.16;;;33.69;33.69
11347;BME280;5728;42.722;23.258;2022-08-19T08:52:18;94563.38;;;34.38;33.33
11347;BME280;5728;42.722;23.258;2022-08-19T08:54:50;94564.56;;;34.91;31.72
11347;BME280;5728;42.722;23.258;2022-08-19T08:57:24;94564.19;;;35.02;30.95
11347;BME280;5728;42.722;23.258;2022-08-19T08:59:56;94562.28;;;35.41;29.95
11347;BME280;5728;42.722;23.258;2022-08-19T09:02:24;94560.91;;;35.45;29.80
11347;BME280;5728;42.722;23.258;2022-08-19T09:04:51;94559.22;;;35.75;29.54
11347;BME280;5728;42.722;23.258;2022-08-19T09:07:26;94561.47;;;36.09;29.20
11347;BME280;5728;42.722;23.258;2022-08-19T09:10:04;94549.63;;;36.47;28.65
11347;BME280;5728;42.722;23.258;2022-08-19T09:12:38;94551.13;;;36.93;28.02
11347;BME280;5728;42.722;23.258;2022-08-19T09:15:13;94546.53;;;37.08;27.19
11347;BME280;5728;42.722;23.258;2022-08-19T09:17:41;94547.03;;;36.97;27.42
11347;BME280;5728;42.722;23.258;2022-08-19T09:20:15;94538.00;;;35.72;28.30
11347;BME280;5728;42.722;23.258;2022-08-19T09:22:42;94537.66;;;35.52;29.55
11347;BME280;5728;42.722;23.258;2022-08-19T09:25:12;94528.91;;;36.10;28.29
11347;BME280;5728;42.722;23.258;2022-08-19T09:27:40;94534.84;;;34.76;28.51
11347;BME280;5728;42.722;23.258;2022-08-19T09:30:13;94538.69;;;35.12;28.35
11347;BME280;5728;42.722;23.258;2022-08-19T09:32:40;94540.94;;;35.62;28.81
11347;BME280;5728;42.722;23.258;2022-08-19T09:35:08;94532.56;;;35.27;27.44
11347;BME280;5728;42.722;23.258;2022-08-19T09:37:35;94529.41;;;35.68;26.61
11347;BME280;5728;42.722;23.258;2022-08-19T09:40:03;94528.63;;;36.34;25.71
11347;BME280;5728;42.722;23.258;2022-08-19T09:42:30;94518.50;;;36.51;25.07
11347;BME280;5728;42.722;23.258;2022-08-19T09:44:56;94533.72;;;36.00;26.50
11347;BME280;5728;42.722;23.258;2022-08-19T09:47:25;94525.00;;;36.42;25.51
11347;BME280;5728;42.722;23.258;2022-08-19T09:49:51;94519.06;;;35.95;25.52
11347;BME280;5728;42.722;23.258;2022-08-19T09:52:18;94518.50;;;34.23;27.62
11347;BME280;5728;42.722;23.258;2022-08-19T09:54:45;94523.06;;;33.82;28.50
11347;BME280;5728;42.722;23.258;2022-08-19T09:57:12;94519.19;;;33.76;28.08
11347;BME280;5728;42.722;23.258;2022-08-19T09:59:39;94518.31;;;34.24;27.52
11347;BME280;5728;42.722;23.258;2022-08-19T10:02:06;94506.06;;;34.69;27.14
11347;BME280;5728;42.722;23.258;2022-08-19T10:04:34;94515.44;;;34.81;26.45
11347;BME280;5728;42.722;23.258;2022-08-19T10:07:18;94506.78;;;34.93;25.62
11347;BME280;5728;42.722;23.258;2022-08-19T10:09:45;94499.47;;;35.33;25.12
11347;BME280;5728;42.722;23.258;2022-08-19T10:12:12;94497.44;;;35.12;24.82
11347;BME280;5728;42.722;23.258;2022-08-19T10:14:40;94505.38;;;35.59;24.62
11347;BME280;5728;42.722;23.258;2022-08-19T10:17:08;94493.41;;;35.00;25.80
11347;BME280;5728;42.722;23.258;2022-08-19T10:19:36;94499.34;;;34.64;26.17
11347;BME280;5728;42.722;23.258;2022-08-19T10:22:04;94495.09;;;34.31;26.89
11347;BME280;5728;42.722;23.258;2022-08-19T10:24:31;94485.22;;;34.16;27.46
11347;BME280;5728;42.722;23.258;2022-08-19T10:26:59;94485.25;;;34.85;27.23
11347;BME280;5728;42.722;23.258;2022-08-19T10:29:29;94499.13;;;35.58;26.36
11347;BME280;5728;42.722;23.258;2022-08-19T10:31:57;94486.78;;;35.41;26.37
11347;BME280;5728;42.722;23.258;2022-08-19T10:34:25;94484.22;;;36.08;25.20
11347;BME280;5728;42.722;23.258;2022-08-19T10:36:54;94483.81;;;36.11;26.12
11347;BME280;5728;42.722;23.258;2022-08-19T10:39:21;94487.31;;;35.97;25.67
11347;BME280;5728;42.722;23.258;2022-08-19T10:41:48;94484.88;;;35.72;25.75
11347;BME280;5728;42.722;23.258;2022-08-19T10:44:14;94485.41;;;36.05;25.36
11347;BME280;5728;42.722;23.258;2022-08-19T10:46:44;94481.22;;;36.03;25.23
11347;BME280;5728;42.722;23.258;2022-08-19T10:49:12;94480.88;;;36.35;24.88
11347;BME280;5728;42.722;23.258;2022-08-19T10:51:41;94475.03;;;36.96;24.81
11347;BME280;5728;42.722;23.258;2022-08-19T10:54:27;94467.88;;;36.74;24.19
11347;BME280;5728;42.722;23.258;2022-08-19T10:57:07;94474.69;;;37.84;24.19
11347;BME280;5728;42.722;23.258;2022-08-19T10:59:34;94466.50;;;38.67;22.68
11347;BME280;5728;42.722;23.258;2022-08-19T11:02:03;94466.94;;;39.12;23.00
11347;BME280;5728;42.722;23.258;2022-08-19T11:04:31;94476.50;;;39.62;21.24
11347;BME280;5728;42.722;23.258;2022-08-19T11:06:58;94478.19;;;39.95;22.93
11347;BME280;5728;42.722;23.258;2022-08-19T11:09:27;94471.06;;;40.27;20.69
11347;BME280;5728;42.722;23.258;2022-08-19T11:11:53;94474.75;;;39.41;21.21
11347;BME280;5728;42.722;23.258;2022-08-19T11:14:22;94472.94;;;36.63;24.33
11347;BME280;5728;42.722;23.258;2022-08-19T11:16:51;94456.69;;;35.75;25.31
11347;BME280;5728;42.722;23.258;2022-08-19T11:19:21;94466.16;;;35.85;25.66
11347;BME280;5728;42.722;23.258;2022-08-19T11:21:50;94457.28;;;36.58;24.54
11347;BME280;5728;42.722;23.258;2022-08-19T11:24:21;94451.25;;;37.91;23.68
11347;BME280;5728;42.722;23.258;2022-08-19T11:26:52;94448.31;;;38.20;22.94
11347;BME280;5728;42.722;23.258;2022-08-19T11:29:22;94442.41;;;38.10;22.86
11347;BME280;5728;42.722;23.258;2022-08-19T11:31:51;94444.97;;;38.18;23.17
11347;BME280;5728;42.722;23.258;2022-08-19T11:34:20;94439.81;;;36.90;24.17
11347;BME280;5728;42.722;23.258;2022-08-19T11:36:50;94429.13;;;37.66;24.26
11347;BME280;5728;42.722;23.258;2022-08-19T11:39:18;94424.94;;;38.47;23.00
11347;BME280;5728;42.722;23.258;2022-08-19T11:41:47;94430.38;;;39.01;22.83
11347;BME280;5728;42.722;23.258;2022-08-19T11:44:15;94432.84;;;38.83;22.34
11347;BME280;5728;42.722;23.258;2022-08-19T11:46:43;94428.63;;;38.74;22.36
11347;BME280;5728;42.722;23.258;2022-08-19T11:49:13;94428.69;;;38.93;23.78
11347;BME280;5728;42.722;23.258;2022-08-19T11:51:40;94426.28;;;39.18;22.19
11347;BME280;5728;42.722;23.258;2022-08-19T11:54:08;94431.72;;;39.38;22.59
11347;BME280;5728;42.722;23.258;2022-08-19T11:56:37;94412.81;;;38.37;22.88
11347;BME280;5728;42.722;23.258;2022-08-19T11:59:04;94416.00;;;36.64;24.41
11347;BME280;5728;42.722;23.258;2022-08-19T12:01:32;94410.50;;;36.43;24.82
11347;BME280;5728;42.722;23.258;2022-08-19T12:03:59;94409.22;;;36.89;24.81
11347;BME280;5728;42.722;23.258;2022-08-19T12:06:29;94414.94;;;37.16;23.74
11347;BME280;5728;42.722;23.258;2022-08-19T12:08:58;94402.47;;;38.19;23.05
11347;BME280;5728;42.722;23.258;2022-08-19T12:11:26;94393.25;;;38.48;22.74
11347;BME280;5728;42.722;23.258;2022-08-19T12:13:53;94400.47;;;37.72;23.71
11347;BME280;5728;42.722;23.258;2022-08-19T12:16:23;94393.22;;;37.09;23.77
11347;BME280;5728;42.722;23.258;2022-08-19T12:18:51;94385.03;;;37.66;23.60
11347;BME280;5728;42.722;23.258;2022-08-19T12:21:23;94384.16;;;38.27;23.20
11347;BME280;5728;42.722;23.258;2022-08-19T12:23:50;94395.63;;;39.24;21.88
11347;BME280;5728;42.722;23.258;2022-08-19T12:26:18;94380.38;;;40.15;21.22
11347;BME280;5728;42.722;23.258;2022-08-19T12:28:45;94374.38;;;40.64;21.24
11347;BME280;5728;42.722;23.258;2022-08-19T12:31:14;94382.66;;;40.89;21.04
11347;BME280;5728;42.722;23.258;2022-08-19T12:33:42;94372.75;;;40.50;20.92
11347;BME280;5728;42.722;23.258;2022-08-19T12:36:12;94371.78;;;40.89;20.25
11347;BME280;5728;42.722;23.258;2022-08-19T12:38:39;94373.78;;;41.00;20.76
11347;BME280;5728;42.722;23.258;2022-08-19T12:41:09;94374.63;;;40.49;20.92
11347;BME280;5728;42.722;23.258;2022-08-19T12:43:37;94380.25;;;40.54;21.36
11347;BME280;5728;42.722;23.258;2022-08-19T12:46:05;94362.19;;;38.44;22.62
11347;BME280;5728;42.722;23.258;2022-08-19T12:48:32;94365.88;;;38.77;22.17
11347;BME280;5728;42.722;23.258;2022-08-19T12:50:59;94362.81;;;38.46;22.74
11347;BME280;5728;42.722;23.258;2022-08-19T12:53:28;94365.31;;;39.14;22.25
11347;BME280;5728;42.722;23.258;2022-08-19T12:55:55;94357.81;;;39.95;21.38
11347;BME280;5728;42.722;23.258;2022-08-19T12:58:23;94354.84;;;40.23;21.33
11347;BME280;5728;42.722;23.258;2022-08-19T13:00:50;94348.81;;;40.71;21.09
11347;BME280;5728;42.722;23.258;2022-08-19T13:03:17;94348.25;;;39.79;21.22
11347;BME280;5728;42.722;23.258;2022-08-19T13:05:44;94344.66;;;40.05;20.99
11347;BME280;5728;42.722;23.258;2022-08-19T13:08:11;94359.84;;;40.32;21.03